createdAt,value
2017-10-03T00:00:24.798Z,21.60
2017-10-03T00:01:24.763Z,22.70
2017-10-03T00:02:24.741Z,27.30
2017-10-03T00:03:24.695Z,24.10
2017-10-03T00:04:24.666Z,22.30
2017-10-03T00:05:24.628Z,20.00
2017-10-03T00:06:24.590Z,23.60
2017-10-03T00:07:24.555Z,18.20
2017-10-03T00:08:24.518Z,27.10
2017-10-03T00:09:24.492Z,28.80
2017-10-03T00:10:24.454Z,23.90
2017-10-03T00:11:24.414Z,21.70
2017-10-03T00:12:24.381Z,29.90
2017-10-03T00:13:24.347Z,28.30
2017-10-03T00:14:24.311Z,24.30
2017-10-03T00:15:24.292Z,24.90
2017-10-03T00:16:24.242Z,30.30
2017-10-03T00:17:24.208Z,25.30
2017-10-03T00:18:24.178Z,20.80
2017-10-03T00:19:24.149Z,27.30
2017-10-03T00:20:24.104Z,21.40
2017-10-03T00:21:24.071Z,24.30
2017-10-03T00:22:24.036Z,24.80
2017-10-03T00:23:24.000Z,28.80
2017-10-03T00:24:23.976Z,23.60
2017-10-03T00:25:23.934Z,27.70
2017-10-03T00:26:23.895Z,25.10
2017-10-03T00:27:23.865Z,24.50
2017-10-03T00:28:23.832Z,29.00
2017-10-03T00:29:23.791Z,22.90
2017-10-03T00:30:23.758Z,23.60
2017-10-03T00:31:23.726Z,26.40
2017-10-03T00:32:23.694Z,26.70
2017-10-03T00:33:23.656Z,25.60
2017-10-03T00:34:23.617Z,23.50
2017-10-03T00:35:23.583Z,29.00
2017-10-03T00:36:23.550Z,28.70
2017-10-03T00:37:23.515Z,27.30
2017-10-03T00:38:23.480Z,20.30
2017-10-03T00:39:23.444Z,27.10
2017-10-03T00:40:23.411Z,25.20
2017-10-03T00:41:23.399Z,28.50
2017-10-03T00:42:23.343Z,30.60
2017-10-03T00:43:23.303Z,32.10
2017-10-03T00:44:23.269Z,29.00
2017-10-03T00:45:23.235Z,23.10
2017-10-03T00:46:23.200Z,25.10
2017-10-03T00:47:23.166Z,30.00
2017-10-03T00:48:23.129Z,26.60
2017-10-03T00:49:23.095Z,24.70
2017-10-03T00:50:23.060Z,23.50
2017-10-03T00:51:23.026Z,32.50
2017-10-03T00:52:22.992Z,32.00
2017-10-03T00:53:22.958Z,37.20
2017-10-03T00:54:22.921Z,29.40
2017-10-03T00:55:22.895Z,27.10
2017-10-03T00:56:22.851Z,33.10
2017-10-03T00:57:22.816Z,29.80
2017-10-03T00:58:22.780Z,29.40
2017-10-03T00:59:22.748Z,33.80
2017-10-03T01:00:22.714Z,28.30
2017-10-03T01:01:22.676Z,32.50
2017-10-03T01:02:22.642Z,34.30
2017-10-03T01:03:22.607Z,32.90
2017-10-03T01:04:22.573Z,29.10
2017-10-03T01:05:22.540Z,32.50
2017-10-03T01:06:22.505Z,31.40
2017-10-03T01:07:22.474Z,33.60
2017-10-03T01:08:22.439Z,33.10
2017-10-03T01:09:22.399Z,33.80
2017-10-03T01:10:22.364Z,33.80
2017-10-03T01:11:22.335Z,38.90
2017-10-03T01:12:22.297Z,32.50
2017-10-03T01:13:22.268Z,30.50
2017-10-03T01:14:22.227Z,39.70
2017-10-03T01:15:22.193Z,30.80
2017-10-03T01:16:22.163Z,30.80
2017-10-03T01:17:22.130Z,31.90
2017-10-03T01:18:22.086Z,34.10
2017-10-03T01:19:22.054Z,27.70
2017-10-03T01:20:22.019Z,31.10
2017-10-03T01:21:21.991Z,31.10
2017-10-03T01:22:21.953Z,31.40
2017-10-03T01:23:21.913Z,28.30
2017-10-03T01:24:21.885Z,39.10
2017-10-03T01:25:21.843Z,36.30
2017-10-03T01:26:21.810Z,37.90
2017-10-03T01:27:21.773Z,38.90
2017-10-03T01:28:21.744Z,36.10
2017-10-03T01:29:21.702Z,39.20
2017-10-03T01:30:21.692Z,29.20
2017-10-03T01:31:21.637Z,30.50
2017-10-03T01:32:21.604Z,34.90
2017-10-03T01:33:21.566Z,35.70
2017-10-03T01:34:21.527Z,26.40
2017-10-03T01:35:21.501Z,33.20
2017-10-03T01:36:21.464Z,30.60
2017-10-03T01:37:21.429Z,31.00
2017-10-03T01:38:21.390Z,26.20
2017-10-03T01:39:21.356Z,30.10
2017-10-03T01:40:21.330Z,36.40
2017-10-03T01:41:21.288Z,37.30
2017-10-03T01:42:21.254Z,39.00
2017-10-03T01:43:21.235Z,36.30
2017-10-03T01:44:21.184Z,34.10
2017-10-03T01:45:21.148Z,38.20
2017-10-03T01:46:21.114Z,35.60
2017-10-03T01:47:21.077Z,32.20
2017-10-03T01:48:21.044Z,31.00
2017-10-03T01:49:21.007Z,33.30
2017-10-03T01:50:20.980Z,30.60
2017-10-03T01:51:20.946Z,30.50
2017-10-03T01:52:20.920Z,33.70
2017-10-03T01:53:20.873Z,34.10
2017-10-03T01:54:20.834Z,34.20
2017-10-03T01:55:20.798Z,28.80
2017-10-03T01:56:20.771Z,32.20
2017-10-03T01:57:20.733Z,36.10
2017-10-03T01:58:20.690Z,37.30
2017-10-03T01:59:20.662Z,36.40
2017-10-03T02:00:20.630Z,30.70
2017-10-03T02:01:20.590Z,39.00
2017-10-03T02:02:20.552Z,37.50
2017-10-03T02:03:20.523Z,28.40
2017-10-03T02:04:20.489Z,36.70
2017-10-03T02:05:20.448Z,38.00
2017-10-03T02:06:20.419Z,27.20
2017-10-03T02:07:20.378Z,33.80
2017-10-03T02:08:20.344Z,32.00
2017-10-03T02:09:20.309Z,31.20
2017-10-03T02:10:20.269Z,38.20
2017-10-03T02:11:20.238Z,37.20
2017-10-03T02:12:20.204Z,38.20
2017-10-03T02:13:20.170Z,34.20
2017-10-03T02:14:20.131Z,44.70
2017-10-03T02:15:20.101Z,40.40
2017-10-03T02:16:20.061Z,33.20
2017-10-03T02:17:20.030Z,36.30
2017-10-03T02:18:19.991Z,30.90
2017-10-03T02:19:19.960Z,29.90
2017-10-03T02:20:19.922Z,33.20
2017-10-03T02:21:19.889Z,33.80
2017-10-03T02:22:19.851Z,39.60
2017-10-03T02:23:19.819Z,31.30
2017-10-03T02:24:19.780Z,33.30
2017-10-03T02:25:19.750Z,38.70
2017-10-03T02:26:19.711Z,35.20
2017-10-03T02:27:19.678Z,36.30
2017-10-03T02:28:19.642Z,35.10
2017-10-03T02:29:19.607Z,30.80
2017-10-03T02:30:19.570Z,33.20
2017-10-03T02:31:19.539Z,41.10
2017-10-03T02:32:19.500Z,34.60
2017-10-03T02:33:19.470Z,28.80
2017-10-03T02:34:19.429Z,38.30
2017-10-03T02:35:19.392Z,31.80
2017-10-03T02:36:19.363Z,33.30
2017-10-03T02:37:19.324Z,38.90
2017-10-03T02:38:19.289Z,39.60
2017-10-03T02:39:19.254Z,37.90
2017-10-03T02:40:19.226Z,35.70
2017-10-03T02:41:19.183Z,36.70
2017-10-03T02:42:19.150Z,39.90
2017-10-03T02:43:19.113Z,37.60
2017-10-03T02:44:19.078Z,41.90
2017-10-03T02:45:19.050Z,39.00
2017-10-03T02:46:19.011Z,38.40
2017-10-03T02:47:18.973Z,40.00
2017-10-03T02:48:18.941Z,34.50
2017-10-03T02:49:18.914Z,41.70
2017-10-03T02:50:18.868Z,32.50
2017-10-03T02:51:18.832Z,29.70
2017-10-03T02:52:18.801Z,31.30
2017-10-03T02:53:18.768Z,40.00
2017-10-03T02:54:18.726Z,38.00
2017-10-03T02:55:18.693Z,36.00
2017-10-03T02:56:18.657Z,45.10
2017-10-03T02:57:18.624Z,35.90
2017-10-03T02:58:18.590Z,46.10
2017-10-03T02:59:18.551Z,41.80
2017-10-03T03:00:18.518Z,37.80
2017-10-03T03:01:18.484Z,35.90
2017-10-03T03:02:18.447Z,36.60
2017-10-03T03:03:18.420Z,49.50
2017-10-03T03:04:18.377Z,37.30
2017-10-03T03:05:18.343Z,34.40
2017-10-03T03:06:18.311Z,39.30
2017-10-03T03:07:18.270Z,37.10
2017-10-03T03:08:18.236Z,35.80
2017-10-03T03:09:18.204Z,43.30
2017-10-03T03:10:18.165Z,44.20
2017-10-03T03:11:18.127Z,36.10
2017-10-03T03:12:18.096Z,39.40
2017-10-03T03:13:18.063Z,43.60
2017-10-03T03:14:18.025Z,37.20
2017-10-03T03:15:17.988Z,39.90
2017-10-03T03:16:17.958Z,38.90
2017-10-03T03:17:17.922Z,36.70
2017-10-03T03:18:17.884Z,43.50
2017-10-03T03:19:17.853Z,38.00
2017-10-03T03:20:17.815Z,38.20
2017-10-03T03:21:17.782Z,45.90
2017-10-03T03:22:17.747Z,42.50
2017-10-03T03:23:17.716Z,43.40
2017-10-03T03:24:17.676Z,36.20
2017-10-03T03:25:17.640Z,46.90
2017-10-03T03:26:17.604Z,33.10
2017-10-03T03:27:17.570Z,41.80
2017-10-03T03:28:17.534Z,42.50
2017-10-03T03:29:17.499Z,42.10
2017-10-03T03:30:17.464Z,40.30
2017-10-03T03:31:17.428Z,35.80
2017-10-03T03:32:17.395Z,43.10
2017-10-03T03:33:17.364Z,42.70
2017-10-03T03:34:17.321Z,38.90
2017-10-03T03:35:17.286Z,36.50
2017-10-03T03:36:17.250Z,39.80
2017-10-03T03:37:17.218Z,40.10
2017-10-03T03:38:17.180Z,38.40
2017-10-03T03:39:17.149Z,41.40
2017-10-03T03:40:17.113Z,41.20
2017-10-03T03:41:17.077Z,35.60
2017-10-03T03:42:17.039Z,43.60
2017-10-03T03:43:17.005Z,38.50
2017-10-03T03:44:16.980Z,41.40
2017-10-03T03:45:16.947Z,36.30
2017-10-03T03:46:16.900Z,39.00
2017-10-03T03:47:16.865Z,41.90
2017-10-03T03:48:16.831Z,37.60
2017-10-03T03:49:16.803Z,39.10
2017-10-03T03:50:16.760Z,51.80
2017-10-03T03:51:16.724Z,39.40
2017-10-03T03:52:16.690Z,38.90
2017-10-03T03:53:16.653Z,49.40
2017-10-03T03:54:16.616Z,36.10
2017-10-03T03:55:16.589Z,45.30
2017-10-03T03:56:16.548Z,44.90
2017-10-03T03:57:16.514Z,43.20
2017-10-03T03:58:16.478Z,39.60
2017-10-03T03:59:16.450Z,44.00
2017-10-03T04:00:16.408Z,45.70
2017-10-03T04:01:16.373Z,42.60
2017-10-03T04:02:16.336Z,43.70
2017-10-03T04:03:16.309Z,47.40
2017-10-03T04:04:16.267Z,40.80
2017-10-03T04:05:16.230Z,40.70
2017-10-03T04:06:16.195Z,34.10
2017-10-03T04:07:16.161Z,41.50
2017-10-03T04:08:16.127Z,47.00
2017-10-03T04:09:16.090Z,35.90
2017-10-03T04:10:16.055Z,43.70
2017-10-03T04:11:16.019Z,46.20
2017-10-03T04:12:15.986Z,40.90
2017-10-03T04:13:15.946Z,43.90
2017-10-03T04:14:15.914Z,46.10
2017-10-03T04:15:15.878Z,40.20
2017-10-03T04:16:15.842Z,37.80
2017-10-03T04:17:15.811Z,45.70
2017-10-03T04:18:15.770Z,40.50
2017-10-03T04:19:15.736Z,32.60
2017-10-03T04:20:15.711Z,44.00
2017-10-03T04:21:15.670Z,50.30
2017-10-03T04:22:15.632Z,34.80
2017-10-03T04:23:15.593Z,40.90
2017-10-03T04:24:15.570Z,45.40
2017-10-03T04:25:15.534Z,41.60
2017-10-03T04:26:15.488Z,36.00
2017-10-03T04:27:15.454Z,40.40
2017-10-03T04:28:15.421Z,34.90
2017-10-03T04:29:15.392Z,40.70
2017-10-03T04:30:15.379Z,44.00
2017-10-03T04:31:15.316Z,37.70
2017-10-03T04:32:15.279Z,33.50
2017-10-03T04:33:15.250Z,29.90
2017-10-03T04:34:15.209Z,43.20
2017-10-03T04:35:15.185Z,36.70
2017-10-03T04:36:15.145Z,40.00
2017-10-03T04:37:15.106Z,37.60
2017-10-03T04:38:15.064Z,39.90
2017-10-03T04:39:15.038Z,35.90
2017-10-03T04:40:14.997Z,35.80
2017-10-03T04:41:14.960Z,41.00
2017-10-03T04:42:14.925Z,38.00
2017-10-03T04:43:14.889Z,40.30
2017-10-03T04:44:14.854Z,38.70
2017-10-03T04:45:14.817Z,34.60
2017-10-03T04:46:14.783Z,46.10
2017-10-03T04:47:14.747Z,43.10
2017-10-03T04:48:14.715Z,33.70
2017-10-03T04:49:14.678Z,36.30
2017-10-03T04:50:14.657Z,34.30
2017-10-03T04:51:14.605Z,34.90
2017-10-03T04:52:14.582Z,38.50
2017-10-03T04:53:14.537Z,38.60
2017-10-03T04:54:14.500Z,36.60
2017-10-03T04:55:14.465Z,32.60
2017-10-03T04:56:14.427Z,39.20
2017-10-03T04:57:14.401Z,40.10
2017-10-03T04:58:14.359Z,33.20
2017-10-03T04:59:14.323Z,36.10
2017-10-03T05:00:14.291Z,35.40
2017-10-03T05:01:14.269Z,33.20
2017-10-03T05:02:14.217Z,29.40
2017-10-03T05:03:14.184Z,35.30
2017-10-03T05:04:14.150Z,37.50
2017-10-03T05:05:14.114Z,33.00
2017-10-03T05:06:14.077Z,31.00
2017-10-03T05:07:14.046Z,33.10
2017-10-03T05:08:14.007Z,28.10
2017-10-03T05:09:13.974Z,29.50
2017-10-03T05:10:13.936Z,27.60
2017-10-03T05:11:13.908Z,33.50
2017-10-03T05:12:13.866Z,31.70
2017-10-03T05:13:13.836Z,34.30
2017-10-03T05:14:13.795Z,38.60
2017-10-03T05:15:13.764Z,34.40
2017-10-03T05:16:13.728Z,27.10
2017-10-03T05:17:13.692Z,41.40
2017-10-03T05:18:13.651Z,32.60
2017-10-03T05:19:13.620Z,38.40
2017-10-03T05:20:13.584Z,30.70
2017-10-03T05:21:13.547Z,37.30
2017-10-03T05:22:13.513Z,34.30
2017-10-03T05:23:13.484Z,30.60
2017-10-03T05:24:13.442Z,35.40
2017-10-03T05:25:13.407Z,34.10
2017-10-03T05:26:13.377Z,28.50
2017-10-03T05:27:13.355Z,30.00
2017-10-03T05:28:13.315Z,31.20
2017-10-03T05:29:13.266Z,31.60
2017-10-03T05:30:13.231Z,36.40
2017-10-03T05:31:13.196Z,29.50
2017-10-03T05:32:13.169Z,27.40
2017-10-03T05:33:13.126Z,31.30
2017-10-03T05:34:13.096Z,31.60
2017-10-03T05:35:13.056Z,33.90
2017-10-03T05:36:13.020Z,35.00
2017-10-03T05:37:13.006Z,34.10
2017-10-03T05:38:12.948Z,36.80
2017-10-03T05:39:12.918Z,29.70
2017-10-03T05:40:12.878Z,27.20
2017-10-03T05:41:12.847Z,29.70
2017-10-03T05:42:12.815Z,32.20
2017-10-03T05:43:12.775Z,31.80
2017-10-03T05:44:12.738Z,28.90
2017-10-03T05:45:12.706Z,27.30
2017-10-03T05:46:12.676Z,26.90
2017-10-03T05:47:12.648Z,27.00
2017-10-03T05:48:12.596Z,32.30
2017-10-03T05:49:12.565Z,28.60
2017-10-03T05:50:12.534Z,27.80
2017-10-03T05:51:12.496Z,30.50
2017-10-03T05:52:12.464Z,27.10
2017-10-03T05:53:12.423Z,34.00
2017-10-03T05:54:12.386Z,36.40
2017-10-03T05:55:12.353Z,30.80
2017-10-03T05:56:12.319Z,29.10
2017-10-03T05:57:12.281Z,27.80
2017-10-03T05:58:12.248Z,26.00
2017-10-03T05:59:12.210Z,26.90
2017-10-03T06:00:12.177Z,25.60
2017-10-03T06:01:12.143Z,26.80
2017-10-03T06:02:12.107Z,27.50
2017-10-03T06:03:12.071Z,23.00
2017-10-03T06:04:12.035Z,29.40
2017-10-03T06:05:12.010Z,35.80
2017-10-03T06:06:11.979Z,28.20
2017-10-03T06:07:11.935Z,31.40
2017-10-03T06:08:11.899Z,30.30
2017-10-03T06:09:11.862Z,22.90
2017-10-03T06:10:11.824Z,29.20
2017-10-03T06:11:11.808Z,26.20
2017-10-03T06:12:11.759Z,30.00
2017-10-03T06:13:11.722Z,22.50
2017-10-03T06:14:11.683Z,20.50
2017-10-03T06:15:11.651Z,28.80
2017-10-03T06:16:11.617Z,32.90
2017-10-03T06:17:11.579Z,28.00
2017-10-03T06:18:11.554Z,27.10
2017-10-03T06:19:11.513Z,30.50
2017-10-03T06:20:11.476Z,23.20
2017-10-03T06:21:11.445Z,25.00
2017-10-03T06:22:11.407Z,25.20
2017-10-03T06:23:11.376Z,28.70
2017-10-03T06:24:11.335Z,25.50
2017-10-03T06:25:11.306Z,26.30
2017-10-03T06:26:11.265Z,24.70
2017-10-03T06:27:11.230Z,27.40
2017-10-03T06:28:11.196Z,26.30
2017-10-03T06:29:11.162Z,22.10
2017-10-03T06:30:11.126Z,29.00
2017-10-03T06:31:11.093Z,23.30
2017-10-03T06:32:11.056Z,28.20
2017-10-03T06:33:11.021Z,27.90
2017-10-03T06:34:10.988Z,28.50
2017-10-03T06:35:10.953Z,26.20
2017-10-03T06:36:10.916Z,29.20
2017-10-03T06:37:10.890Z,26.00
2017-10-03T06:38:10.847Z,26.10
2017-10-03T06:39:10.813Z,19.50
2017-10-03T06:40:10.779Z,24.50
2017-10-03T06:41:10.742Z,25.00
2017-10-03T06:42:10.707Z,23.50
2017-10-03T06:43:10.690Z,28.70
2017-10-03T06:44:10.637Z,25.20
2017-10-03T06:45:10.618Z,27.10
2017-10-03T06:46:10.577Z,26.70
2017-10-03T06:47:10.536Z,28.80
2017-10-03T06:48:10.502Z,22.60
2017-10-03T06:49:10.467Z,24.50
2017-10-03T06:50:10.433Z,33.20
2017-10-03T06:51:10.394Z,28.50
2017-10-03T06:52:10.359Z,25.70
2017-10-03T06:53:10.325Z,27.40
2017-10-03T06:54:10.290Z,28.10
2017-10-03T06:55:10.257Z,24.70
2017-10-03T06:56:10.225Z,24.30
2017-10-03T06:57:10.183Z,25.00
2017-10-03T06:58:10.178Z,27.40
2017-10-03T06:59:10.117Z,24.30
2017-10-03T07:00:10.103Z,22.70
2017-10-03T07:01:10.057Z,22.00
2017-10-03T07:02:10.030Z,26.30
2017-10-03T07:03:09.991Z,25.50
2017-10-03T07:04:09.956Z,20.50
2017-10-03T07:05:09.909Z,24.10
2017-10-03T07:06:09.876Z,21.90
2017-10-03T07:07:09.840Z,24.90
2017-10-03T07:08:09.807Z,18.10
2017-10-03T07:09:09.777Z,21.60
2017-10-03T07:10:09.734Z,26.40
2017-10-03T07:11:09.712Z,21.90
2017-10-03T07:12:09.672Z,23.40
2017-10-03T07:13:09.645Z,21.30
2017-10-03T07:14:09.598Z,25.30
2017-10-03T07:15:09.568Z,24.30
2017-10-03T07:16:09.549Z,19.70
2017-10-03T07:17:09.504Z,22.50
2017-10-03T07:18:09.467Z,21.80
2017-10-03T07:19:09.440Z,26.40
2017-10-03T07:20:09.398Z,18.60
2017-10-03T07:21:09.365Z,18.00
2017-10-03T07:22:09.417Z,23.80
2017-10-03T07:23:09.307Z,27.50
2017-10-03T07:24:09.277Z,25.30
2017-10-03T07:25:09.239Z,20.90
2017-10-03T07:26:09.196Z,20.60
2017-10-03T07:27:09.162Z,26.70
2017-10-03T07:28:09.139Z,21.20
2017-10-03T07:29:09.093Z,23.00
2017-10-03T07:30:09.062Z,22.70
2017-10-03T07:31:09.025Z,30.20
2017-10-03T07:32:09.007Z,24.00
2017-10-03T07:33:08.959Z,28.10
2017-10-03T07:34:08.921Z,23.90
2017-10-03T07:35:08.897Z,21.70
2017-10-03T07:36:08.857Z,25.90
2017-10-03T07:37:08.866Z,25.90
2017-10-03T07:38:08.790Z,21.40
2017-10-03T07:39:08.753Z,21.80
2017-10-03T07:40:08.721Z,23.30
2017-10-03T07:41:08.685Z,25.20
2017-10-03T07:42:08.652Z,25.20
2017-10-03T07:43:08.624Z,21.10
2017-10-03T07:44:08.586Z,26.00
2017-10-03T07:45:08.550Z,26.50
2017-10-03T07:46:08.519Z,23.40
2017-10-03T07:47:08.491Z,24.60
2017-10-03T07:48:08.449Z,23.80
2017-10-03T07:49:08.413Z,23.30
2017-10-03T07:50:08.378Z,25.70
2017-10-03T07:51:08.344Z,25.60
2017-10-03T07:52:08.310Z,21.70
2017-10-03T07:53:08.278Z,26.20
2017-10-03T07:54:08.246Z,34.10
2017-10-03T07:55:08.209Z,22.70
2017-10-03T07:56:08.176Z,21.00
2017-10-03T07:57:08.148Z,19.80
2017-10-03T07:58:08.109Z,17.50
2017-10-03T07:59:08.077Z,23.30
2017-10-03T08:00:08.039Z,23.10
2017-10-03T08:01:08.007Z,21.10
2017-10-03T08:02:07.977Z,22.20
2017-10-03T08:03:07.938Z,22.60
2017-10-03T08:04:07.912Z,21.50
2017-10-03T08:05:07.872Z,21.50
2017-10-03T08:06:07.883Z,19.20
2017-10-03T08:07:07.807Z,18.50
2017-10-03T08:08:07.773Z,23.50
2017-10-03T08:09:07.733Z,26.90
2017-10-03T08:10:07.702Z,22.30
2017-10-03T08:11:07.668Z,22.30
2017-10-03T08:12:07.638Z,21.90
2017-10-03T08:13:07.641Z,19.10
2017-10-03T08:14:07.566Z,23.40
2017-10-03T08:15:07.531Z,22.10
2017-10-03T08:16:07.508Z,16.80
2017-10-03T08:17:07.466Z,24.90
2017-10-03T08:18:07.432Z,21.60
2017-10-03T08:19:07.398Z,19.70
2017-10-03T08:20:07.364Z,26.80
2017-10-03T08:21:07.332Z,17.90
2017-10-03T08:22:07.304Z,19.90
2017-10-03T08:23:07.264Z,23.20
2017-10-03T08:24:07.232Z,25.40
2017-10-03T08:25:07.193Z,19.80
2017-10-03T08:26:07.164Z,17.90
2017-10-03T08:27:07.128Z,16.80
2017-10-03T08:28:07.094Z,23.10
2017-10-03T08:29:07.061Z,18.20
2017-10-03T08:30:07.033Z,17.60
2017-10-03T08:31:07.004Z,17.70
2017-10-03T08:32:06.988Z,18.20
2017-10-03T08:33:06.928Z,20.70
2017-10-03T08:34:06.897Z,20.60
2017-10-03T08:35:06.862Z,19.70
2017-10-03T08:36:06.832Z,17.40
2017-10-03T08:37:06.804Z,21.80
2017-10-03T08:38:06.765Z,17.70
2017-10-03T08:39:06.731Z,18.90
2017-10-03T08:40:06.708Z,26.50
2017-10-03T08:41:06.675Z,22.90
2017-10-03T08:42:06.641Z,20.30
2017-10-03T08:43:06.612Z,22.10
2017-10-03T08:44:06.569Z,22.60
2017-10-03T08:45:06.534Z,20.70
2017-10-03T08:46:06.499Z,19.50
2017-10-03T08:47:06.467Z,17.70
2017-10-03T08:48:06.437Z,17.90
2017-10-03T08:49:06.404Z,20.30
2017-10-03T08:50:06.367Z,21.00
2017-10-03T08:51:06.334Z,17.90
2017-10-03T08:52:06.303Z,19.40
2017-10-03T08:53:06.271Z,19.60
2017-10-03T08:54:06.237Z,16.20
2017-10-03T08:55:06.219Z,20.50
2017-10-03T08:56:06.180Z,23.20
2017-10-03T08:57:06.141Z,18.50
2017-10-03T08:58:06.105Z,20.20
2017-10-03T08:59:06.072Z,18.30
2017-10-03T09:00:06.054Z,18.60
2017-10-03T09:01:06.009Z,20.70
2017-10-03T09:02:05.972Z,18.10
2017-10-03T09:03:05.942Z,18.70
2017-10-03T09:04:05.913Z,20.40
2017-10-03T09:05:05.872Z,20.80
2017-10-03T09:06:05.838Z,21.40
2017-10-03T09:07:05.815Z,19.30
2017-10-03T09:08:05.778Z,20.10
2017-10-03T09:09:05.754Z,20.80
2017-10-03T09:10:05.710Z,19.80
2017-10-03T09:11:05.685Z,19.40
2017-10-03T09:12:05.646Z,19.90
2017-10-03T09:13:05.608Z,17.90
2017-10-03T09:14:05.573Z,26.10
2017-10-03T09:15:05.546Z,22.70
2017-10-03T09:16:05.508Z,16.90
2017-10-03T09:17:05.475Z,18.90
2017-10-03T09:18:05.442Z,19.30
2017-10-03T09:19:05.417Z,17.90
2017-10-03T09:20:05.376Z,22.60
2017-10-03T09:21:05.342Z,21.10
2017-10-03T09:22:05.324Z,22.30
2017-10-03T09:23:05.281Z,16.00
2017-10-03T09:24:05.252Z,15.10
2017-10-03T09:25:05.225Z,22.00
2017-10-03T09:26:05.190Z,17.10
2017-10-03T09:27:05.144Z,17.50
2017-10-03T09:28:05.113Z,17.30
2017-10-03T09:29:05.076Z,17.60
2017-10-03T09:30:05.051Z,20.10
2017-10-03T09:31:05.024Z,17.20
2017-10-03T09:32:04.987Z,18.60
2017-10-03T09:33:04.981Z,21.00
2017-10-03T09:34:04.928Z,23.20
2017-10-03T09:35:04.889Z,21.20
2017-10-03T09:36:04.887Z,18.60
2017-10-03T09:37:04.812Z,21.10
2017-10-03T09:38:04.784Z,17.90
2017-10-03T09:39:04.768Z,16.80
2017-10-03T09:40:04.717Z,20.30
2017-10-03T09:41:04.681Z,19.60
2017-10-03T09:42:04.731Z,19.60
2017-10-03T09:43:04.620Z,16.50
2017-10-03T09:44:04.590Z,19.00
2017-10-03T09:45:04.552Z,16.30
2017-10-03T09:46:04.521Z,13.70
2017-10-03T09:47:04.549Z,17.40
2017-10-03T09:48:04.462Z,18.10
2017-10-03T09:49:04.444Z,17.40
2017-10-03T09:50:04.416Z,20.10
2017-10-03T09:51:04.385Z,22.10
2017-10-03T09:52:04.325Z,24.70
2017-10-03T09:53:04.290Z,17.10
2017-10-03T09:54:04.256Z,17.80
2017-10-03T09:55:04.223Z,18.50
2017-10-03T09:56:04.191Z,20.60
2017-10-03T09:57:04.156Z,15.90
2017-10-03T09:58:04.122Z,18.80
2017-10-03T09:59:04.089Z,18.40
2017-10-03T10:00:04.055Z,20.40
2017-10-03T10:01:04.023Z,19.90
2017-10-03T10:02:03.996Z,20.30
2017-10-03T10:03:03.956Z,17.20
2017-10-03T10:04:03.927Z,16.80
2017-10-03T10:05:03.903Z,18.80
2017-10-03T10:06:03.867Z,19.10
2017-10-03T10:07:03.823Z,23.40
2017-10-03T10:08:03.805Z,19.60
2017-10-03T10:09:03.768Z,19.30
2017-10-03T10:10:03.722Z,22.50
2017-10-03T10:11:03.690Z,17.60
2017-10-03T10:12:03.657Z,19.60
2017-10-03T10:13:03.623Z,18.60
2017-10-03T10:14:03.596Z,12.80
2017-10-03T10:15:03.554Z,17.90
2017-10-03T10:16:03.534Z,19.40
2017-10-03T10:17:03.491Z,22.50
2017-10-03T10:18:03.459Z,17.30
2017-10-03T10:19:03.425Z,18.30
2017-10-03T10:20:03.392Z,21.20
2017-10-03T10:21:03.364Z,19.20
2017-10-03T10:22:03.326Z,18.30
2017-10-03T10:23:03.294Z,15.70
2017-10-03T10:24:03.257Z,17.00
2017-10-03T10:25:03.228Z,19.90
2017-10-03T10:26:03.192Z,19.30
2017-10-03T10:27:03.158Z,16.30
2017-10-03T10:28:03.125Z,17.20
2017-10-03T10:29:03.091Z,16.30
2017-10-03T10:30:03.060Z,19.10
2017-10-03T10:31:03.030Z,16.40
2017-10-03T10:32:02.994Z,21.60
2017-10-03T10:33:02.968Z,17.80
2017-10-03T10:34:02.934Z,15.70
2017-10-03T10:35:02.896Z,22.50
2017-10-03T10:36:02.861Z,18.50
2017-10-03T10:37:02.834Z,17.80
2017-10-03T10:38:02.803Z,14.00
2017-10-03T10:39:02.764Z,13.80
2017-10-03T10:40:02.738Z,14.50
2017-10-03T10:41:02.697Z,15.60
2017-10-03T10:42:02.665Z,14.70
2017-10-03T10:43:02.637Z,17.50
2017-10-03T10:44:02.603Z,15.20
2017-10-03T10:45:02.577Z,14.20
2017-10-03T10:46:02.539Z,13.50
2017-10-03T10:47:02.511Z,19.00
2017-10-03T10:48:02.470Z,13.80
2017-10-03T10:49:02.446Z,13.40
2017-10-03T10:50:02.406Z,15.70
2017-10-03T10:51:02.379Z,17.70
2017-10-03T10:52:02.361Z,13.30
2017-10-03T10:53:02.304Z,18.30
2017-10-03T10:54:02.278Z,17.40
2017-10-03T10:55:02.240Z,16.10
2017-10-03T10:56:02.206Z,14.80
2017-10-03T10:57:02.170Z,15.30
2017-10-03T10:58:02.141Z,20.80
2017-10-03T10:59:02.116Z,15.80
2017-10-03T11:00:02.073Z,14.80
2017-10-03T11:01:02.039Z,17.60
2017-10-03T11:02:02.014Z,17.30
2017-10-03T11:03:01.978Z,12.90
2017-10-03T11:04:01.962Z,17.90
2017-10-03T11:05:01.917Z,15.90
2017-10-03T11:06:01.883Z,14.70
2017-10-03T11:07:01.842Z,15.80
2017-10-03T11:08:01.809Z,18.80
2017-10-03T11:09:01.787Z,14.60
2017-10-03T11:10:01.745Z,16.30
2017-10-03T11:11:01.712Z,15.80
2017-10-03T11:12:01.677Z,15.20
2017-10-03T11:13:01.645Z,13.30
2017-10-03T11:14:01.615Z,17.50
2017-10-03T11:15:01.584Z,14.60
2017-10-03T11:16:01.545Z,15.90
2017-10-03T11:17:01.514Z,20.20
2017-10-03T11:18:01.482Z,15.70
2017-10-03T11:19:01.451Z,14.80
2017-10-03T11:20:01.419Z,12.60
2017-10-03T11:21:01.382Z,16.10
2017-10-03T11:22:01.353Z,16.80
2017-10-03T11:23:01.317Z,16.30
2017-10-03T11:24:01.287Z,13.70
2017-10-03T11:25:01.253Z,13.70
2017-10-03T11:26:01.218Z,11.60
2017-10-03T11:27:01.186Z,13.20
2017-10-03T11:28:01.152Z,15.40
2017-10-03T11:29:01.128Z,16.60
2017-10-03T11:30:01.085Z,14.00
2017-10-03T11:31:01.051Z,13.60
2017-10-03T11:32:01.019Z,14.80
2017-10-03T11:33:00.990Z,15.10
2017-10-03T11:34:00.958Z,15.30
2017-10-03T11:35:00.925Z,15.40
2017-10-03T11:36:00.888Z,18.40
2017-10-03T11:37:00.871Z,15.30
2017-10-03T11:38:00.821Z,12.30
2017-10-03T11:39:00.785Z,16.60
2017-10-03T11:40:00.761Z,15.70
2017-10-03T11:41:00.718Z,20.00
2017-10-03T11:42:00.691Z,13.50
2017-10-03T11:43:00.651Z,12.80
2017-10-03T11:44:00.624Z,10.90
2017-10-03T11:45:00.583Z,15.10
2017-10-03T11:46:00.556Z,14.20
2017-10-03T11:47:00.522Z,14.60
2017-10-03T11:48:00.507Z,12.80
2017-10-03T11:49:00.465Z,10.80
2017-10-03T11:50:00.412Z,14.00
2017-10-03T11:51:00.384Z,15.70
2017-10-03T11:52:00.356Z,12.20
2017-10-03T11:53:00.312Z,13.40
2017-10-03T11:54:00.285Z,18.60
2017-10-03T11:55:00.244Z,13.80
2017-10-03T11:56:00.211Z,14.40
2017-10-03T11:57:00.178Z,17.40
2017-10-03T11:58:00.144Z,14.20
2017-10-03T11:59:00.112Z,18.60
2017-10-03T12:00:00.075Z,16.60
2017-10-03T12:01:00.055Z,15.50
2017-10-03T12:02:00.010Z,14.70
2017-10-03T12:02:59.975Z,15.20
2017-10-03T12:03:59.960Z,12.40
2017-10-03T12:04:59.917Z,13.20
2017-10-03T12:05:59.880Z,17.90
2017-10-03T12:06:59.876Z,16.80
2017-10-03T12:07:59.832Z,13.70
2017-10-03T12:08:59.775Z,12.00
2017-10-03T12:09:59.757Z,15.90
2017-10-03T12:10:59.726Z,14.90
2017-10-03T12:11:59.682Z,16.30
2017-10-03T12:12:59.652Z,12.00
2017-10-03T12:13:59.617Z,15.10
2017-10-03T12:14:59.601Z,15.50
2017-10-03T12:15:59.549Z,13.70
2017-10-03T12:16:59.523Z,15.40
2017-10-03T12:17:59.481Z,13.20
2017-10-03T12:18:59.442Z,14.10
2017-10-03T12:19:59.429Z,13.80
2017-10-03T12:20:59.375Z,13.30
2017-10-03T12:21:59.343Z,13.10
2017-10-03T12:22:59.320Z,13.00
2017-10-03T12:23:59.287Z,14.50
2017-10-03T12:24:59.246Z,15.20
2017-10-03T12:25:59.217Z,13.60
2017-10-03T12:26:59.182Z,15.00
2017-10-03T12:27:59.147Z,14.90
2017-10-03T12:28:59.116Z,16.20
2017-10-03T12:29:59.081Z,12.70
2017-10-03T12:30:59.054Z,11.20
2017-10-03T12:31:59.017Z,13.60
2017-10-03T12:32:58.990Z,13.90
2017-10-03T12:33:58.948Z,10.50
2017-10-03T12:34:58.925Z,12.60
2017-10-03T12:35:58.894Z,13.40
2017-10-03T12:36:58.854Z,12.10
2017-10-03T12:37:58.825Z,10.60
2017-10-03T12:38:58.797Z,12.10
2017-10-03T12:39:58.760Z,10.80
2017-10-03T12:40:58.724Z,10.70
2017-10-03T12:41:58.707Z,11.10
2017-10-03T12:42:58.682Z,10.80
2017-10-03T12:43:58.655Z,16.80
2017-10-03T12:44:58.603Z,11.10
2017-10-03T12:45:58.567Z,13.70
2017-10-03T12:46:58.532Z,11.80
2017-10-03T12:47:58.501Z,11.30
2017-10-03T12:48:58.467Z,13.10
2017-10-03T12:49:58.436Z,11.00
2017-10-03T12:50:58.415Z,14.80
2017-10-03T12:51:58.385Z,13.20